createdAt,value
2019-01-15T00:02:02.990Z,99521.23
2019-01-15T00:04:28.862Z,99523.11
2019-01-15T00:06:54.775Z,99518.21
2019-01-15T00:09:20.648Z,99524.05
2019-01-15T00:11:46.528Z,99528.52
2019-01-15T00:14:12.391Z,99536.70
2019-01-15T00:16:38.375Z,99535.73
2019-01-15T00:19:04.222Z,99538.50
2019-01-15T00:21:30.100Z,99534.19
2019-01-15T00:23:55.989Z,99528.98
2019-01-15T00:26:21.988Z,99534.09
2019-01-15T00:28:47.833Z,99535.14
2019-01-15T00:31:13.748Z,99534.72
2019-01-15T00:33:39.612Z,99528.42
2019-01-15T00:36:05.533Z,99536.71
2019-01-15T00:38:31.498Z,99547.23
2019-01-15T00:40:57.794Z,99535.33
2019-01-15T00:43:23.682Z,99533.34
2019-01-15T00:45:49.660Z,99530.58
2019-01-15T00:48:15.509Z,99533.59
2019-01-15T00:50:41.391Z,99530.64
2019-01-15T00:53:07.287Z,99536.81
2019-01-15T00:55:33.145Z,99537.38
2019-01-15T00:57:59.016Z,99538.01
2019-01-15T01:00:24.912Z,99544.80
2019-01-15T01:02:50.800Z,99542.86
2019-01-15T01:05:16.800Z,99544.37
2019-01-15T01:07:42.675Z,99542.92
2019-01-15T01:10:09.751Z,99544.95
2019-01-15T01:12:35.647Z,99551.63
2019-01-15T01:15:02.455Z,99550.75
2019-01-15T01:17:28.324Z,99560.41
2019-01-15T01:19:54.188Z,99560.41
2019-01-15T01:22:20.073Z,99566.92
2019-01-15T01:24:45.952Z,99563.75
2019-01-15T01:27:11.941Z,99573.73
2019-01-15T01:29:37.947Z,99580.20
2019-01-15T01:32:03.770Z,99579.05
2019-01-15T01:34:29.634Z,99582.20
2019-01-15T01:36:55.537Z,99582.34
2019-01-15T01:39:21.534Z,99573.02
2019-01-15T01:41:47.769Z,99585.04
2019-01-15T01:44:13.660Z,99579.30
2019-01-15T01:46:39.687Z,99594.41
2019-01-15T01:49:05.583Z,99595.97
2019-01-15T01:51:31.431Z,99599.45
2019-01-15T01:53:57.308Z,99601.48
2019-01-15T01:56:23.247Z,99603.52
2019-01-15T01:58:49.114Z,99605.69
2019-01-15T02:01:14.972Z,99607.92
2019-01-15T02:03:40.849Z,99610.50
2019-01-15T02:06:06.712Z,99615.95
2019-01-15T02:08:32.795Z,99610.21
2019-01-15T02:10:58.697Z,99612.95
2019-01-15T02:13:24.552Z,99610.75
2019-01-15T02:15:50.433Z,99614.46
2019-01-15T02:18:16.293Z,99619.75
2019-01-15T02:20:42.182Z,99625.02
2019-01-15T02:23:08.061Z,99626.07
2019-01-15T02:25:34.327Z,99620.90
2019-01-15T02:28:00.258Z,99627.58
2019-01-15T02:30:26.214Z,99628.47
2019-01-15T02:32:52.077Z,99626.09
2019-01-15T02:35:17.917Z,99628.44
2019-01-15T02:37:43.794Z,99620.30
2019-01-15T02:40:12.114Z,99626.03
2019-01-15T02:42:46.383Z,99621.86
2019-01-15T02:45:09.350Z,99624.62
2019-01-15T02:47:35.319Z,99625.75
2019-01-15T02:50:01.224Z,99633.82
2019-01-15T02:52:27.072Z,99633.77
2019-01-15T02:54:52.950Z,99627.63
2019-01-15T02:57:18.808Z,99633.67
2019-01-15T02:59:44.779Z,99635.38
2019-01-15T03:02:10.665Z,99634.17
2019-01-15T03:04:36.629Z,99638.95
2019-01-15T03:07:02.585Z,99636.88
2019-01-15T03:09:28.465Z,99642.87
2019-01-15T03:11:54.338Z,99643.90
2019-01-15T03:14:20.202Z,99646.56
2019-01-15T03:16:46.061Z,99654.11
2019-01-15T03:19:11.952Z,99645.41
2019-01-15T03:21:37.844Z,99646.05
2019-01-15T03:24:03.745Z,99639.75
2019-01-15T03:26:29.607Z,99639.75
2019-01-15T03:28:55.468Z,99654.41
2019-01-15T03:31:21.346Z,99642.87
2019-01-15T03:33:47.212Z,99643.91
2019-01-15T03:36:13.199Z,99646.52
2019-01-15T03:38:39.058Z,99650.72
2019-01-15T03:41:05.011Z,99656.42
2019-01-15T03:43:31.523Z,99656.42
2019-01-15T03:46:04.196Z,99653.61
2019-01-15T03:48:25.223Z,99659.82
2019-01-15T03:50:51.205Z,99659.82
2019-01-15T03:53:17.053Z,99651.66
2019-01-15T03:55:42.972Z,99655.96
2019-01-15T03:58:08.840Z,99660.77
2019-01-15T04:00:34.700Z,99658.46
2019-01-15T04:03:00.849Z,99668.69
2019-01-15T04:05:26.872Z,99673.25
2019-01-15T04:07:54.644Z,99673.25
2019-01-15T04:10:20.529Z,99671.95
2019-01-15T04:12:46.443Z,99671.34
2019-01-15T04:15:12.434Z,99669.20
2019-01-15T04:17:38.344Z,99671.98
2019-01-15T04:20:10.152Z,99684.31
2019-01-15T04:22:36.019Z,99681.25
2019-01-15T04:25:01.975Z,99682.41
2019-01-15T04:27:27.850Z,99682.74
2019-01-15T04:29:53.722Z,99689.09
2019-01-15T04:32:19.579Z,99700.27
2019-01-15T04:34:45.474Z,99695.48
2019-01-15T04:37:11.359Z,99691.49
2019-01-15T04:39:37.210Z,99689.73
2019-01-15T04:42:03.225Z,99687.06
2019-01-15T04:44:29.423Z,99693.20
2019-01-15T04:46:55.320Z,99692.81
2019-01-15T04:49:21.206Z,99702.81
2019-01-15T04:51:47.086Z,99709.46
2019-01-15T04:54:12.969Z,99702.98
2019-01-15T04:56:39.271Z,99708.62
2019-01-15T04:59:05.145Z,99711.17
2019-01-15T05:01:30.998Z,99704.74
2019-01-15T05:03:56.883Z,99714.30
2019-01-15T05:06:22.765Z,99709.69
2019-01-15T05:08:48.654Z,99705.20
2019-01-15T05:11:14.624Z,99716.14
2019-01-15T05:13:40.493Z,99710.13
2019-01-15T05:16:06.353Z,99711.03
2019-01-15T05:18:32.272Z,99710.55
2019-01-15T05:20:58.256Z,99712.67
2019-01-15T05:23:24.125Z,99710.98
2019-01-15T05:25:50.011Z,99714.12
2019-01-15T05:28:15.911Z,99724.03
2019-01-15T05:30:41.763Z,99729.77
2019-01-15T05:33:07.643Z,99731.49
2019-01-15T05:35:33.517Z,99734.08
2019-01-15T05:37:59.382Z,99729.77
2019-01-15T05:40:25.254Z,99737.67
2019-01-15T05:42:51.240Z,99734.63
2019-01-15T05:45:22.560Z,99741.18
2019-01-15T05:47:49.848Z,99752.08
2019-01-15T05:50:17.642Z,99756.43
2019-01-15T05:52:43.518Z,99762.96
2019-01-15T05:55:09.407Z,99761.62
2019-01-15T05:57:35.287Z,99759.46
2019-01-15T06:00:02.022Z,99757.30
2019-01-15T06:02:27.906Z,99762.95
2019-01-15T06:04:53.783Z,99766.88
2019-01-15T06:07:19.680Z,99775.59
2019-01-15T06:09:45.569Z,99788.63
2019-01-15T06:12:11.526Z,99786.89
2019-01-15T06:14:37.390Z,99787.78
2019-01-15T06:17:03.261Z,99782.97
2019-01-15T06:19:29.165Z,99787.28
2019-01-15T06:21:55.148Z,99793.38
2019-01-15T06:24:21.020Z,99799.05
2019-01-15T06:26:46.912Z,99799.05
2019-01-15T06:29:13.102Z,99807.31
2019-01-15T06:31:38.973Z,99806.90
2019-01-15T06:34:04.834Z,99809.98
2019-01-15T06:36:30.698Z,99812.59
2019-01-15T06:38:56.552Z,99816.06
2019-01-15T06:41:22.414Z,99809.98
2019-01-15T06:43:50.128Z,99809.53
2019-01-15T06:46:16.773Z,99811.27
2019-01-15T06:48:42.647Z,99815.63
2019-01-15T06:51:08.609Z,99814.33
2019-01-15T06:53:34.516Z,99824.35
2019-01-15T06:56:00.366Z,99826.97
2019-01-15T06:58:26.311Z,99828.23
2019-01-15T07:00:52.169Z,99827.38
2019-01-15T07:03:18.037Z,99828.70
2019-01-15T07:05:43.915Z,99834.36
2019-01-15T07:08:09.822Z,99834.37
2019-01-15T07:10:37.102Z,99835.66
2019-01-15T07:13:03.142Z,99836.95
2019-01-15T07:15:29.109Z,99846.09
2019-01-15T07:17:55.006Z,99839.98
2019-01-15T07:20:20.885Z,99848.70
2019-01-15T07:22:46.755Z,99852.20
2019-01-15T07:25:15.126Z,99868.74
2019-01-15T07:27:41.133Z,99872.66
2019-01-15T07:30:18.726Z,99873.09
2019-01-15T07:32:44.580Z,99885.29
2019-01-15T07:35:10.419Z,99881.81
2019-01-15T07:37:36.325Z,99890.06
2019-01-15T07:40:05.038Z,99886.59
2019-01-15T07:42:30.894Z,99900.54
2019-01-15T07:44:56.894Z,99895.74
2019-01-15T07:47:23.498Z,99900.54
2019-01-15T07:49:49.580Z,99904.91
2019-01-15T07:52:15.451Z,99906.64
2019-01-15T07:54:41.334Z,99914.47
2019-01-15T07:57:07.229Z,99911.42
2019-01-15T07:59:33.188Z,99909.22
2019-01-15T08:01:59.180Z,99920.97
2019-01-15T08:04:25.086Z,99920.08
2019-01-15T08:06:51.069Z,99923.97
2019-01-15T08:09:16.966Z,99929.18
2019-01-15T08:11:42.843Z,99930.94
2019-01-15T08:14:12.202Z,99936.17
2019-01-15T08:16:36.638Z,99942.73
2019-01-15T08:19:02.522Z,99948.83
2019-01-15T08:21:28.440Z,99953.64
2019-01-15T08:23:54.288Z,99958.84
2019-01-15T08:26:20.167Z,99962.77
2019-01-15T08:28:46.014Z,99970.19
2019-01-15T08:31:11.880Z,99967.50
2019-01-15T08:33:37.744Z,99979.28
2019-01-15T08:36:03.595Z,99980.49
2019-01-15T08:38:29.496Z,99980.42
2019-01-15T08:40:55.511Z,99991.66
2019-01-15T08:43:21.564Z,100012.12
2019-01-15T08:45:47.579Z,99995.00
2019-01-15T08:48:15.961Z,99995.00
2019-01-15T08:50:41.935Z,100013.30
2019-01-15T08:53:07.806Z,100013.28
2019-01-15T08:55:33.678Z,100016.75
2019-01-15T08:57:59.530Z,100021.38
2019-01-15T09:00:25.446Z,100028.38
2019-01-15T09:02:51.295Z,100035.52
2019-01-15T09:05:17.189Z,100039.05
2019-01-15T09:07:43.075Z,100046.01
2019-01-15T09:10:16.259Z,100044.98
2019-01-15T09:12:42.323Z,100045.89
2019-01-15T09:15:11.227Z,100031.41
2019-01-15T09:17:37.218Z,100044.06
2019-01-15T09:20:09.869Z,100043.59
2019-01-15T09:22:35.734Z,100043.33
2019-01-15T09:25:01.786Z,100052.88
2019-01-15T09:27:27.709Z,100047.09
2019-01-15T09:29:53.577Z,100051.41
2019-01-15T09:32:19.460Z,100053.48
2019-01-15T09:34:45.348Z,100060.83
2019-01-15T09:37:12.121Z,100063.89
2019-01-15T09:39:38.020Z,100067.28
2019-01-15T09:42:03.989Z,100068.95
2019-01-15T09:44:34.058Z,100067.63
2019-01-15T09:46:58.068Z,100068.22
2019-01-15T09:49:24.617Z,100071.48
2019-01-15T09:51:50.491Z,100073.99
2019-01-15T09:54:16.381Z,100074.71
2019-01-15T09:56:42.227Z,100070.18
2019-01-15T09:59:08.088Z,100071.80
2019-01-15T10:01:33.986Z,100071.84
2019-01-15T10:03:59.860Z,100063.83
2019-01-15T10:06:25.726Z,100068.94
2019-01-15T10:08:51.631Z,100063.74
2019-01-15T10:11:17.531Z,100058.91
2019-01-15T10:13:43.401Z,100055.35
2019-01-15T10:16:09.377Z,100048.61
2019-01-15T10:18:35.275Z,100052.08
2019-01-15T10:21:01.151Z,100044.98
2019-01-15T10:23:27.018Z,100048.47
2019-01-15T10:25:52.894Z,100046.22
2019-01-15T10:28:18.752Z,100045.19
2019-01-15T10:30:51.525Z,100036.97
2019-01-15T10:33:26.875Z,100035.51
2019-01-15T10:35:57.002Z,100033.58
2019-01-15T10:38:27.157Z,100032.41
2019-01-15T10:40:54.948Z,100028.27
2019-01-15T10:43:20.796Z,100030.25
2019-01-15T10:45:46.718Z,100020.23
2019-01-15T10:48:13.359Z,100019.30
2019-01-15T10:50:40.000Z,100020.04
2019-01-15T10:53:06.778Z,100020.28
2019-01-15T10:55:32.648Z,100008.80
2019-01-15T10:57:58.581Z,100006.48
2019-01-15T11:00:24.419Z,100011.89
2019-01-15T11:02:50.385Z,100010.89
2019-01-15T11:05:16.304Z,100004.13
2019-01-15T11:07:42.174Z,100000.52
2019-01-15T11:10:11.906Z,100000.20
2019-01-15T11:12:37.795Z,99998.34
2019-01-15T11:15:06.576Z,99994.28
2019-01-15T11:17:32.445Z,99993.86
2019-01-15T11:19:58.372Z,99991.70
2019-01-15T11:22:24.264Z,99985.38
2019-01-15T11:24:50.146Z,99981.50
2019-01-15T11:27:16.030Z,99983.62
2019-01-15T11:29:41.887Z,99982.06
2019-01-15T11:32:07.754Z,99976.39
2019-01-15T11:34:33.643Z,99976.64
2019-01-15T11:36:59.625Z,99970.60
2019-01-15T11:39:25.510Z,99969.74
2019-01-15T11:41:51.386Z,99967.46
2019-01-15T11:44:17.347Z,99972.05
2019-01-15T11:46:43.261Z,99959.90
2019-01-15T11:49:09.228Z,99953.75
2019-01-15T11:51:35.318Z,99946.40
2019-01-15T11:54:01.170Z,99950.74
2019-01-15T11:56:27.032Z,99943.14
2019-01-15T11:58:53.497Z,99945.93
2019-01-15T12:01:21.298Z,99938.27
2019-01-15T12:03:52.093Z,99932.59
2019-01-15T12:06:34.815Z,99943.79
2019-01-15T12:09:02.586Z,99938.47
2019-01-15T12:11:36.636Z,99940.87
2019-01-15T12:14:06.915Z,99931.27
2019-01-15T12:16:51.292Z,99926.33
2019-01-15T12:19:19.126Z,99929.92
2019-01-15T12:22:03.698Z,99925.27
2019-01-15T12:24:37.802Z,99919.59
2019-01-15T12:27:08.348Z,99919.67
2019-01-15T12:29:38.903Z,99916.60
2019-01-15T12:32:06.690Z,99917.87
2019-01-15T12:34:37.192Z,99921.08
2019-01-15T12:37:10.744Z,99919.42
2019-01-15T12:39:53.614Z,99922.70
2019-01-15T12:42:21.381Z,99918.08
2019-01-15T12:45:06.305Z,99915.91
2019-01-15T12:47:49.359Z,99902.88
2019-01-15T12:50:17.245Z,99899.78
2019-01-15T12:52:48.280Z,99904.14
2019-01-15T12:55:22.012Z,99893.50
2019-01-15T12:57:52.672Z,99892.44
2019-01-15T13:00:23.181Z,99920.91
2019-01-15T13:02:59.807Z,99934.47
2019-01-15T13:05:44.468Z,99949.77
2019-01-15T13:08:24.192Z,99930.31
2019-01-15T13:10:51.959Z,99912.78
2019-01-15T13:13:22.455Z,99915.66
2019-01-15T13:15:51.614Z,99921.88
2019-01-15T13:18:34.543Z,99903.02
2019-01-15T13:21:14.638Z,99895.95
2019-01-15T13:23:51.474Z,99899.36
2019-01-15T13:26:28.066Z,99900.72
2019-01-15T13:28:58.353Z,99897.09
2019-01-15T13:31:26.137Z,99894.42
2019-01-15T13:34:10.700Z,99894.45
2019-01-15T13:36:41.682Z,99893.43
2019-01-15T13:39:21.448Z,99899.27
2019-01-15T13:41:52.016Z,99897.75
2019-01-15T13:44:28.590Z,99896.41
2019-01-15T13:46:59.321Z,99908.77
2019-01-15T13:49:27.091Z,99905.62
2019-01-15T13:52:01.539Z,99905.55
2019-01-15T13:54:35.757Z,99905.41
2019-01-15T13:57:15.853Z,99909.77
2019-01-15T13:59:49.442Z,99913.09
2019-01-15T14:02:19.915Z,99900.62
2019-01-15T14:04:59.668Z,99912.55
2019-01-15T14:07:27.571Z,99918.73
2019-01-15T14:09:58.358Z,99915.44
2019-01-15T14:12:29.126Z,99918.91
2019-01-15T14:14:59.832Z,99919.58
2019-01-15T14:17:36.806Z,99924.48
2019-01-15T14:20:20.168Z,99920.14
2019-01-15T14:22:56.873Z,99927.27
2019-01-15T14:25:30.436Z,99922.95
2019-01-15T14:28:13.257Z,99922.06
2019-01-15T14:30:53.139Z,99923.28
2019-01-15T14:33:27.152Z,99921.85
2019-01-15T14:36:13.046Z,99918.23
2019-01-15T14:38:46.929Z,99927.22
2019-01-15T14:41:14.699Z,99933.45
2019-01-15T14:43:42.776Z,99929.79
2019-01-15T14:46:27.220Z,99932.28
2019-01-15T14:48:57.726Z,99934.73
2019-01-15T14:51:28.600Z,99937.41
2019-01-15T14:54:03.202Z,99943.23
2019-01-15T14:56:48.417Z,99941.06
2019-01-15T14:59:21.943Z,99939.85
2019-01-15T15:01:52.603Z,99942.53
2019-01-15T15:04:20.366Z,99949.83
2019-01-15T15:06:48.246Z,99954.80
2019-01-15T15:09:16.041Z,99955.61
2019-01-15T15:11:49.957Z,99953.69
2019-01-15T15:14:23.688Z,99960.61
2019-01-15T15:17:00.473Z,99960.86
2019-01-15T15:19:34.468Z,99956.73
2019-01-15T15:22:02.297Z,99961.89
2019-01-15T15:24:46.728Z,99956.22
2019-01-15T15:27:20.321Z,99960.51
2019-01-15T15:29:56.956Z,99960.30
2019-01-15T15:32:24.752Z,99952.12
2019-01-15T15:34:58.812Z,99956.30
2019-01-15T15:37:29.373Z,99953.98
2019-01-15T15:39:57.145Z,99948.48
2019-01-15T15:42:41.895Z,99942.36
2019-01-15T15:45:09.975Z,99948.93
2019-01-15T15:47:40.924Z,99946.08
2019-01-15T15:50:10.601Z,99935.55
2019-01-15T15:52:53.776Z,99930.77
2019-01-15T15:55:24.993Z,99931.66
2019-01-15T15:57:59.376Z,99930.20
2019-01-15T16:00:43.929Z,99927.99
2019-01-15T16:03:11.708Z,99937.92
2019-01-15T16:05:39.503Z,99942.35
2019-01-15T16:08:23.792Z,99941.84
2019-01-15T16:10:54.390Z,99948.30
2019-01-15T16:13:28.389Z,99944.96
2019-01-15T16:16:18.786Z,99943.48
2019-01-15T16:18:45.381Z,99943.13
2019-01-15T16:21:22.143Z,99949.97
2019-01-15T16:24:02.272Z,99956.30
2019-01-15T16:26:32.659Z,99957.39
2019-01-15T16:29:00.380Z,99962.20
2019-01-15T16:31:28.167Z,99961.34
2019-01-15T16:34:00.373Z,99962.02
2019-01-15T16:36:37.330Z,99970.28
2019-01-15T16:39:20.351Z,99969.64
2019-01-15T16:41:54.347Z,99968.81
2019-01-15T16:44:24.846Z,99976.80
2019-01-15T16:46:52.660Z,99982.14
2019-01-15T16:49:26.433Z,99986.11
2019-01-15T16:52:48.536Z,99990.95
2019-01-15T16:55:16.280Z,99993.20
2019-01-15T16:57:56.263Z,100000.31
2019-01-15T17:00:42.007Z,100001.20
2019-01-15T17:03:09.769Z,100012.22
2019-01-15T17:05:49.517Z,100015.28
2019-01-15T17:08:17.276Z,100006.65
2019-01-15T17:10:47.920Z,100012.94
2019-01-15T17:13:21.587Z,100028.31
2019-01-15T17:16:05.999Z,100014.38
2019-01-15T17:18:39.834Z,100015.38
2019-01-15T17:21:13.622Z,100024.76
2019-01-15T17:23:44.460Z,100030.49
2019-01-15T17:26:12.249Z,100031.52
2019-01-15T17:28:40.032Z,100029.88
2019-01-15T17:31:16.816Z,100043.14
2019-01-15T17:33:53.777Z,100049.12
2019-01-15T17:36:39.545Z,100046.10
2019-01-15T17:39:14.570Z,100043.02
2019-01-15T17:41:54.205Z,100048.34
2019-01-15T17:44:33.848Z,100047.09
2019-01-15T17:47:04.604Z,100046.67
2019-01-15T17:49:32.405Z,100055.92
2019-01-15T17:52:01.581Z,100055.46
2019-01-15T17:54:44.396Z,100059.41
2019-01-15T17:57:27.137Z,100062.50
2019-01-15T18:00:07.743Z,100058.95
2019-01-15T18:02:45.495Z,100060.58
2019-01-15T18:05:30.054Z,100062.89
2019-01-15T18:08:09.838Z,100066.83
2019-01-15T18:10:40.759Z,100069.55
2019-01-15T18:13:08.558Z,100067.80
2019-01-15T18:15:53.116Z,100070.41
2019-01-15T18:18:37.690Z,100076.62
2019-01-15T18:21:14.402Z,100074.85
2019-01-15T18:23:42.168Z,100067.86
2019-01-15T18:26:12.957Z,100073.59
2019-01-15T18:28:40.757Z,100064.88
2019-01-15T18:31:23.757Z,100073.73
2019-01-15T18:33:51.560Z,100073.73
2019-01-15T18:36:35.769Z,100078.89
2019-01-15T18:39:03.716Z,100074.59
2019-01-15T18:41:48.277Z,100074.59
2019-01-15T18:44:31.145Z,100085.86
2019-01-15T18:47:15.727Z,100085.86
2019-01-15T18:49:43.513Z,100074.05
2019-01-15T18:52:27.854Z,100078.39
2019-01-15T18:55:01.431Z,100088.92
2019-01-15T18:57:46.029Z,100088.92
2019-01-15T19:00:31.073Z,100092.45
2019-01-15T19:03:17.731Z,100092.45
2019-01-15T19:05:45.536Z,100090.73
2019-01-15T19:08:16.088Z,100081.59
2019-01-15T19:10:49.962Z,100081.59
2019-01-15T19:13:17.758Z,100087.21
2019-01-15T19:15:57.627Z,100087.21
2019-01-15T19:18:40.633Z,100088.06
2019-01-15T19:21:11.318Z,100098.55
2019-01-15T19:23:51.475Z,100097.66
2019-01-15T19:26:34.669Z,100097.66
2019-01-15T19:29:02.461Z,100099.41
2019-01-15T19:31:33.254Z,100099.41
2019-01-15T19:34:06.830Z,100100.72
2019-01-15T19:36:51.424Z,100103.80
2019-01-15T19:39:19.209Z,100103.80
2019-01-15T19:41:52.568Z,100102.89
2019-01-15T19:44:37.330Z,100102.08
2019-01-15T19:47:17.236Z,100111.70
2019-01-15T19:50:01.772Z,100103.45
2019-01-15T19:52:38.565Z,100117.39
2019-01-15T19:55:07.386Z,100118.70
2019-01-15T19:57:38.274Z,100110.80
2019-01-15T20:00:18.088Z,100121.30
2019-01-15T20:02:49.443Z,100121.30
2019-01-15T20:05:29.522Z,100128.74
2019-01-15T20:07:57.387Z,100126.16
2019-01-15T20:10:25.170Z,100126.16
2019-01-15T20:13:01.918Z,100128.77
2019-01-15T20:15:35.562Z,100128.77
2019-01-15T20:18:18.408Z,100135.80
2019-01-15T20:20:46.182Z,100135.39
2019-01-15T20:23:23.001Z,100130.95
2019-01-15T20:25:55.274Z,100134.02
2019-01-15T20:28:26.093Z,100142.36
2019-01-15T20:30:59.849Z,100134.52
2019-01-15T20:33:27.628Z,100143.66
2019-01-15T20:35:55.424Z,100142.36
2019-01-15T20:38:38.346Z,100142.36
2019-01-15T20:41:09.101Z,100147.57
2019-01-15T20:43:42.652Z,100141.87
2019-01-15T20:46:15.965Z,100133.23
2019-01-15T20:48:58.787Z,100141.05
2019-01-15T20:51:26.559Z,100126.66
2019-01-15T20:54:00.470Z,100140.62
2019-01-15T20:56:38.610Z,100140.62
2019-01-15T20:59:06.405Z,100138.00
2019-01-15T21:01:36.949Z,100131.03
2019-01-15T21:04:07.599Z,100142.84
2019-01-15T21:06:36.152Z,100148.11
2019-01-15T21:09:11.751Z,100148.11
2019-01-15T21:11:39.567Z,100154.68
2019-01-15T21:14:23.994Z,100157.28
2019-01-15T21:17:08.320Z,100157.28
2019-01-15T21:19:48.489Z,100160.34
2019-01-15T21:22:19.226Z,100163.41
2019-01-15T21:24:59.125Z,100164.27
2019-01-15T21:27:30.210Z,100167.74
2019-01-15T21:30:00.708Z,100167.74
2019-01-15T21:32:45.022Z,100157.21
2019-01-15T21:35:29.314Z,100157.21
2019-01-15T21:38:13.624Z,100165.53
2019-01-15T21:40:59.706Z,100152.44
2019-01-15T21:43:36.258Z,100158.97
2019-01-15T21:46:20.858Z,100161.59
2019-01-15T21:49:03.693Z,100169.03
2019-01-15T21:51:37.290Z,100169.03
2019-01-15T21:54:13.896Z,100164.65
2019-01-15T21:56:41.800Z,100165.59
2019-01-15T21:59:21.994Z,100162.10
2019-01-15T22:02:05.158Z,100160.70
2019-01-15T22:04:51.194Z,100160.70
2019-01-15T22:07:36.662Z,100152.02
2019-01-15T22:10:19.980Z,100152.02
2019-01-15T22:12:47.812Z,100166.02
2019-01-15T22:15:18.376Z,100170.37
2019-01-15T22:17:54.939Z,100174.77
2019-01-15T22:20:37.685Z,100169.09
2019-01-15T22:23:22.062Z,100163.84
2019-01-15T22:25:49.964Z,100163.84
2019-01-15T22:28:17.783Z,100172.13
2019-01-15T22:31:02.434Z,100169.51
2019-01-15T22:33:30.217Z,100177.38
2019-01-15T22:36:03.842Z,100172.58
2019-01-15T22:38:50.113Z,100173.45
2019-01-15T22:41:17.923Z,100172.16
2019-01-15T22:44:04.001Z,100177.34
2019-01-15T22:46:31.894Z,100170.80
2019-01-15T22:49:05.537Z,100168.64
2019-01-15T22:51:51.575Z,100171.26
2019-01-15T22:54:22.067Z,100176.05
2019-01-15T22:56:58.660Z,100168.20
2019-01-15T22:59:38.266Z,100156.86
2019-01-15T23:02:06.065Z,100162.55
2019-01-15T23:04:50.799Z,100156.85
2019-01-15T23:07:19.149Z,100166.02
2019-01-15T23:09:50.627Z,100162.95
2019-01-15T23:12:18.449Z,100166.42
2019-01-15T23:14:49.035Z,100164.27
2019-01-15T23:17:33.377Z,100168.16
2019-01-15T23:20:09.996Z,100167.30
2019-01-15T23:22:40.814Z,100177.77
2019-01-15T23:25:26.961Z,100165.11
2019-01-15T23:28:11.362Z,100164.70
2019-01-15T23:30:39.190Z,100164.25
2019-01-15T23:33:06.946Z,100155.98
2019-01-15T23:35:40.715Z,100159.02
2019-01-15T23:38:08.541Z,100151.60
2019-01-15T23:40:52.946Z,100158.55
2019-01-15T23:43:23.716Z,100156.38
2019-01-15T23:46:08.311Z,100161.61
2019-01-15T23:48:51.521Z,100161.19
2019-01-15T23:51:35.919Z,100161.17
2019-01-15T23:54:07.748Z,100149.41
2019-01-15T23:56:44.505Z,100146.34
2019-01-15T23:59:12.372Z,100150.26
